Aeroporto :
LOGIN :

Iscrizione | Disclaimer

   EN    FR    IT 

 










Sommario :    VFR   VFR Marginale   IFR   IFR Intensivo   IFR Molto Intensivo
Visibilità : 
Base nubi : 
>= 8 km
>= 3000ft
5 / 8 km
1000 / 3000 ft
1500m / 5 km
500 / 1000 ft
800 / 1500m
200 / 500 ft
< 800m
< 200 ft
Simboli :   Temporali  Nebbia  Neve Forte  Precipitazioni Forti  Vento > 20 kt
SIGMETs :   Varie  Temporali  Ghiacco  Turbolenza  Onda orograficha  Ceneri Vulcaniche







- Altitudine del aeroporto : 1416 ft
- Codice IATA : ZRH


LSZH - Zurich

ULTIMO METAR :
  • 202050Z VRB02KT 9999 -RA FEW006 BKN085 14/13 Q1028 NOSIG

METARs OBSOLETI :
  • 202020Z 14005KT 9999 -RA FEW005 BKN080 14/13 Q1028 NOSIG
  • 201950Z 16004KT 9999 -RA FEW006 BKN080 14/13 Q1028 NOSIG
  • 201920Z 17002KT 8000 -RA FEW006 BKN080 14/13 Q1028 TEMPO 4500 RA
  • 201850Z 25002KT 8000 -RA FEW006 BKN070 14/13 Q1028 TEMPO 4500 RA
  • 201820Z 26002KT 8000 RA FEW008 SCT060 BKN080 14/13 Q1028 TEMPO 4500

TAF TAF LSZH
Valido dal 20 a 21 ore il 22 a 03 ore UTC


202025Z 2021/2203 VRB03KT 9999 -RA FEW008 SCT020 BKN030 TX22/2114Z TN11/2104Z
BECMG 2021/2023 NSW
PROB40 2103/2107 3000 BCFG BKN005
BECMG 2106/2109 04009KT SCT025
TEMPO 2112/2117 04012G25KT
ATIS : +41 43 816 2295 (DEP) +41 43 816 2294 (ARR)
Nessun NOTAM noto per questo aeroporto.



MetMap, La meteo Aeronautica in un colpo d'occhio ! - Copyright ORBIFLY Dicembre 2007 - Disclaimer

ORBIFLY MET'MAP TEAM :

Programmazione e sviluppo : Alexandra Zaïnal
Concezione e sviluppo : Baudouin d'Aumeries
Co-Programmazione e sviluppo : Marc-Olivier Méhu
Supporto tecnico e logistico : Manuel Goepfert
Aiuto per la traduzione : Arnaldo La Scala

Contatto : metmap@orbifly.com




FONTI E CREDITI :

   NOAA